createdAt,value
2023-06-16T00:00:39.965Z,13.30
2023-06-16T00:03:07.359Z,13.20
2023-06-16T00:05:36.092Z,13.10
2023-06-16T00:08:04.702Z,13.10
2023-06-16T00:10:31.885Z,13.00
2023-06-16T00:12:58.898Z,13.00
2023-06-16T00:15:25.950Z,12.90
2023-06-16T00:17:53.659Z,12.80
2023-06-16T00:20:22.586Z,12.80
2023-06-16T00:22:50.237Z,12.70
2023-06-16T00:25:18.803Z,12.60
2023-06-16T00:27:46.016Z,12.60
2023-06-16T00:30:13.618Z,12.50
2023-06-16T00:32:40.587Z,12.50
2023-06-16T00:35:07.923Z,12.50
2023-06-16T00:37:34.843Z,12.40
2023-06-16T00:40:01.683Z,12.40
2023-06-16T00:42:28.452Z,12.30
2023-06-16T00:44:55.242Z,12.30
2023-06-16T00:47:22.030Z,12.20
2023-06-16T00:49:48.870Z,12.20
2023-06-16T00:52:17.482Z,12.20
2023-06-16T00:54:44.842Z,12.10
2023-06-16T00:57:11.666Z,12.10
2023-06-16T00:59:38.963Z,12.10
2023-06-16T01:02:06.033Z,12.00
2023-06-16T01:04:33.359Z,12.00
2023-06-16T01:07:22.688Z,12.00
2023-06-16T01:10:06.066Z,11.90
2023-06-16T01:12:34.112Z,11.90
2023-06-16T01:15:08.633Z,11.90
2023-06-16T01:17:44.767Z,11.80
2023-06-16T01:20:41.097Z,11.80
2023-06-16T01:23:15.891Z,11.70
2023-06-16T01:25:45.302Z,11.70
2023-06-16T01:28:14.086Z,11.60
2023-06-16T01:30:45.619Z,11.60
2023-06-16T01:33:14.979Z,11.60
2023-06-16T01:35:42.605Z,11.50
2023-06-16T01:38:10.079Z,11.50
2023-06-16T01:40:37.515Z,11.50
2023-06-16T01:43:06.051Z,11.40
2023-06-16T01:45:33.697Z,11.50
2023-06-16T01:48:00.935Z,11.40
2023-06-16T01:50:27.819Z,11.40
2023-06-16T01:52:54.586Z,11.40
2023-06-16T01:55:21.428Z,11.30
2023-06-16T01:57:48.730Z,11.30
2023-06-16T02:00:18.915Z,11.30
2023-06-16T02:02:50.494Z,11.20
2023-06-16T02:05:21.805Z,11.20
2023-06-16T02:07:51.230Z,11.20
2023-06-16T02:10:20.142Z,11.20
2023-06-16T02:12:48.630Z,11.10
2023-06-16T02:15:21.415Z,11.10
2023-06-16T02:17:50.668Z,11.00
2023-06-16T02:20:18.622Z,11.00
2023-06-16T02:22:45.778Z,11.00
2023-06-16T02:25:12.618Z,10.90
2023-06-16T02:27:39.506Z,10.90
2023-06-16T02:30:07.624Z,10.90
2023-06-16T02:35:05.174Z,10.90
2023-06-16T02:37:32.050Z,10.80
2023-06-16T02:39:58.848Z,10.80
2023-06-16T02:42:25.637Z,10.80
2023-06-16T02:44:52.380Z,10.80
2023-06-16T02:47:19.209Z,10.70
2023-06-16T02:49:46.516Z,10.70
2023-06-16T02:52:13.383Z,10.70
2023-06-16T02:54:41.486Z,10.70
2023-06-16T02:57:11.014Z,10.70
2023-06-16T02:59:37.795Z,10.70
2023-06-16T03:02:04.957Z,10.70
2023-06-16T03:04:31.798Z,10.70
2023-06-16T03:06:58.825Z,10.70
2023-06-16T03:09:28.768Z,10.70
2023-06-16T03:11:56.754Z,10.70
2023-06-16T03:14:23.675Z,10.70
2023-06-16T03:16:50.510Z,10.70
2023-06-16T03:19:18.058Z,10.80
2023-06-16T03:21:45.536Z,10.80
2023-06-16T03:24:14.390Z,10.80
2023-06-16T03:26:41.568Z,10.90
2023-06-16T03:29:08.826Z,10.90
2023-06-16T03:31:35.708Z,10.90
2023-06-16T03:34:14.931Z,11.00
2023-06-16T03:36:49.748Z,11.10
2023-06-16T03:39:16.978Z,11.10
2023-06-16T03:41:43.757Z,11.10
2023-06-16T03:44:10.555Z,11.20
2023-06-16T03:46:37.285Z,11.20
2023-06-16T03:49:04.129Z,11.30
2023-06-16T03:51:31.232Z,11.40
2023-06-16T03:53:59.067Z,11.50
2023-06-16T03:56:25.900Z,11.60
2023-06-16T03:58:52.840Z,11.80
2023-06-16T04:01:23.817Z,12.10
2023-06-16T04:03:50.973Z,12.60
2023-06-16T04:06:18.160Z,13.30
2023-06-16T04:08:50.683Z,14.00
2023-06-16T04:11:18.113Z,14.80
2023-06-16T04:13:44.937Z,15.60
2023-06-16T04:16:11.701Z,16.40
2023-06-16T04:18:38.613Z,17.10
2023-06-16T04:21:05.591Z,17.90
2023-06-16T04:23:33.353Z,18.50
2023-06-16T04:26:00.382Z,19.10
2023-06-16T04:28:27.277Z,19.60
2023-06-16T04:30:57.588Z,19.80
2023-06-16T04:33:24.638Z,20.20
2023-06-16T04:35:54.141Z,20.80
2023-06-16T04:38:21.134Z,21.50
2023-06-16T04:40:48.203Z,22.20
2023-06-16T04:43:15.273Z,22.70
2023-06-16T04:45:42.153Z,23.00
2023-06-16T04:48:08.988Z,22.80
2023-06-16T04:50:35.775Z,22.30
2023-06-16T04:53:04.384Z,21.70
2023-06-16T04:55:31.330Z,21.10
2023-06-16T04:57:58.087Z,20.60
2023-06-16T05:00:28.867Z,20.20
2023-06-16T05:02:55.762Z,20.40
2023-06-16T05:05:22.652Z,21.40
2023-06-16T05:07:49.507Z,22.70
2023-06-16T05:10:16.480Z,24.10
2023-06-16T05:12:43.346Z,25.50
2023-06-16T05:15:10.869Z,26.60
2023-06-16T05:17:38.619Z,27.60
2023-06-16T05:20:06.033Z,28.50
2023-06-16T05:22:32.818Z,29.40
2023-06-16T05:24:59.592Z,30.10
2023-06-16T05:27:26.796Z,30.70
2023-06-16T05:29:56.767Z,30.30
2023-06-16T05:32:26.356Z,29.10
2023-06-16T05:34:53.668Z,27.80
2023-06-16T05:37:21.412Z,26.70
2023-06-16T05:39:48.944Z,25.70
2023-06-16T05:42:16.600Z,25.40
2023-06-16T05:44:47.011Z,25.20
2023-06-16T05:47:14.278Z,25.70
2023-06-16T05:49:41.198Z,26.80
2023-06-16T05:52:08.462Z,27.50
2023-06-16T05:54:36.620Z,27.80
2023-06-16T05:57:04.355Z,27.40
2023-06-16T05:59:31.487Z,27.20
2023-06-16T06:01:58.687Z,27.30
2023-06-16T06:04:30.675Z,27.60
2023-06-16T06:06:58.395Z,27.90
2023-06-16T06:09:25.612Z,28.80
2023-06-16T06:11:52.373Z,30.10
2023-06-16T06:14:19.427Z,31.60
2023-06-16T06:16:46.440Z,32.90
2023-06-16T06:19:13.274Z,34.00
2023-06-16T06:21:40.363Z,34.90
2023-06-16T06:24:08.015Z,35.80
2023-06-16T06:26:34.986Z,36.60
2023-06-16T06:29:01.945Z,37.20
2023-06-16T06:31:28.704Z,37.70
2023-06-16T06:33:55.464Z,38.10
2023-06-16T06:36:23.714Z,38.50
2023-06-16T06:38:50.601Z,38.90
2023-06-16T06:41:18.581Z,39.40
2023-06-16T06:43:45.378Z,39.80
2023-06-16T06:46:12.542Z,40.20
2023-06-16T06:48:39.404Z,39.80
2023-06-16T06:51:06.598Z,39.10
2023-06-16T06:53:33.912Z,38.70
2023-06-16T06:56:00.855Z,38.90
2023-06-16T06:58:27.719Z,39.10
2023-06-16T07:00:54.452Z,39.30
2023-06-16T07:03:21.354Z,39.70
2023-06-16T07:05:48.227Z,40.20
2023-06-16T07:08:15.109Z,40.60
2023-06-16T07:10:41.882Z,40.80
2023-06-16T07:13:08.721Z,41.00
2023-06-16T07:15:35.526Z,41.40
2023-06-16T07:18:02.489Z,41.70
2023-06-16T07:20:29.382Z,41.80
2023-06-16T07:22:56.149Z,41.80
2023-06-16T07:25:22.886Z,42.00
2023-06-16T07:27:49.839Z,42.20
2023-06-16T07:30:16.812Z,42.50
2023-06-16T07:32:44.071Z,42.80
2023-06-16T07:35:10.920Z,42.70
2023-06-16T07:37:37.745Z,42.00
2023-06-16T07:40:08.184Z,41.80
2023-06-16T07:42:35.005Z,41.90
2023-06-16T07:45:01.758Z,42.20
2023-06-16T07:47:28.535Z,42.00
2023-06-16T07:49:55.330Z,41.80
2023-06-16T07:52:22.093Z,42.00
2023-06-16T07:54:48.846Z,42.00
2023-06-16T07:57:15.621Z,41.80
2023-06-16T07:59:42.459Z,41.60
2023-06-16T08:02:09.337Z,41.50
2023-06-16T08:04:36.424Z,41.20
2023-06-16T08:07:03.308Z,41.20
2023-06-16T08:09:30.125Z,41.70
2023-06-16T08:11:57.045Z,41.70
2023-06-16T08:14:23.973Z,41.80
2023-06-16T08:16:51.206Z,41.80
2023-06-16T08:19:17.986Z,41.20
2023-06-16T08:21:44.697Z,41.20
2023-06-16T08:24:11.614Z,41.30
2023-06-16T08:26:39.764Z,41.50
2023-06-16T08:29:08.568Z,41.80
2023-06-16T08:31:35.344Z,42.00
2023-06-16T08:34:02.287Z,42.10
2023-06-16T08:36:29.498Z,42.20
2023-06-16T08:38:56.246Z,42.60
2023-06-16T08:41:24.888Z,42.50
2023-06-16T08:43:54.048Z,42.40
2023-06-16T08:46:21.341Z,42.10
2023-06-16T08:48:48.149Z,41.00
2023-06-16T08:51:15.326Z,39.10
2023-06-16T08:53:42.949Z,37.40
2023-06-16T08:56:11.913Z,36.80
2023-06-16T08:58:41.649Z,37.00
2023-06-16T09:01:08.779Z,37.30
2023-06-16T09:03:36.394Z,37.90
2023-06-16T09:06:03.596Z,38.40
2023-06-16T09:08:30.917Z,37.40
2023-06-16T09:10:58.324Z,36.10
2023-06-16T09:13:28.299Z,35.30
2023-06-16T09:15:58.568Z,35.10
2023-06-16T09:18:35.289Z,34.10
2023-06-16T09:21:06.596Z,32.70
2023-06-16T09:23:33.476Z,31.40
2023-06-16T09:26:00.445Z,30.20
2023-06-16T09:28:38.458Z,29.20
2023-06-16T09:31:12.388Z,28.90
2023-06-16T09:33:40.765Z,29.00
2023-06-16T09:36:10.070Z,28.80
2023-06-16T09:38:37.965Z,28.60
2023-06-16T09:41:16.746Z,28.50
2023-06-16T09:43:43.944Z,28.70
2023-06-16T09:46:13.411Z,28.90
2023-06-16T09:48:50.882Z,29.30
2023-06-16T09:51:18.938Z,29.30
2023-06-16T09:53:47.452Z,29.20
2023-06-16T09:56:16.677Z,29.10
2023-06-16T09:58:48.290Z,29.50
2023-06-16T10:01:15.806Z,30.50
2023-06-16T10:03:45.018Z,31.40
2023-06-16T10:06:18.987Z,31.90
2023-06-16T10:08:51.084Z,31.70
2023-06-16T10:11:19.640Z,31.20
2023-06-16T10:13:52.944Z,30.60
2023-06-16T10:16:24.740Z,29.90
2023-06-16T10:18:54.958Z,29.30
2023-06-16T10:21:24.577Z,28.80
2023-06-16T10:23:52.987Z,28.30
2023-06-16T10:26:20.228Z,28.30
2023-06-16T10:28:47.667Z,28.80
2023-06-16T10:31:15.637Z,29.10
2023-06-16T10:33:59.773Z,29.50
2023-06-16T10:36:30.808Z,29.80
2023-06-16T10:39:13.627Z,29.80
2023-06-16T10:41:51.669Z,28.90
2023-06-16T10:44:32.286Z,28.50
2023-06-16T10:47:13.721Z,28.90
2023-06-16T10:49:56.693Z,29.40
2023-06-16T10:52:29.877Z,29.70
2023-06-16T10:54:57.914Z,29.70
2023-06-16T10:57:28.498Z,30.00
2023-06-16T10:59:58.107Z,30.50
2023-06-16T11:02:34.638Z,30.80
2023-06-16T11:05:11.792Z,31.10
2023-06-16T11:07:58.285Z,30.90
2023-06-16T11:10:25.989Z,30.90
2023-06-16T11:12:52.773Z,31.00
2023-06-16T11:15:22.591Z,31.10
2023-06-16T11:17:49.613Z,30.70
2023-06-16T11:20:18.093Z,29.80
2023-06-16T11:22:45.824Z,29.00
2023-06-16T11:25:14.122Z,28.40
2023-06-16T11:27:44.249Z,28.00
2023-06-16T11:30:11.969Z,27.60
2023-06-16T11:32:39.485Z,27.50
2023-06-16T11:35:06.974Z,27.70
2023-06-16T11:38:01.073Z,28.00
2023-06-16T11:40:31.581Z,28.30
2023-06-16T11:42:59.817Z,28.30
2023-06-16T11:45:44.631Z,27.90
2023-06-16T11:48:11.791Z,27.70
2023-06-16T11:50:39.049Z,27.70
2023-06-16T11:53:05.804Z,27.80
2023-06-16T11:55:33.258Z,27.90
2023-06-16T11:58:00.283Z,28.00
2023-06-16T12:00:28.179Z,28.20
2023-06-16T12:02:56.013Z,28.40
2023-06-16T12:05:32.639Z,28.60
2023-06-16T12:07:59.600Z,28.60
2023-06-16T12:10:27.217Z,28.40
2023-06-16T12:12:54.182Z,28.40
2023-06-16T12:15:23.146Z,28.10
2023-06-16T12:17:50.193Z,27.80
2023-06-16T12:20:19.991Z,27.70
2023-06-16T12:22:48.158Z,27.70
2023-06-16T12:25:18.281Z,27.70
2023-06-16T12:27:52.598Z,27.70
2023-06-16T12:30:21.062Z,27.40
2023-06-16T12:32:48.211Z,27.10
2023-06-16T12:35:25.524Z,26.80
2023-06-16T12:37:57.629Z,26.40
2023-06-16T12:40:30.890Z,26.10
2023-06-16T12:42:57.657Z,26.00
2023-06-16T12:45:24.408Z,26.10
2023-06-16T12:47:51.627Z,26.30
2023-06-16T12:50:18.597Z,26.80
2023-06-16T12:52:45.899Z,27.10
2023-06-16T12:55:12.700Z,27.40
2023-06-16T12:57:40.494Z,27.30
2023-06-16T13:00:08.615Z,27.30
2023-06-16T13:02:35.784Z,27.40
2023-06-16T13:05:02.804Z,27.30
2023-06-16T13:07:29.613Z,27.30
2023-06-16T13:09:56.401Z,27.30
2023-06-16T13:12:23.233Z,27.10
2023-06-16T13:14:50.019Z,26.70
2023-06-16T13:17:17.480Z,26.40
2023-06-16T13:19:45.553Z,26.10
2023-06-16T13:22:14.313Z,25.80
2023-06-16T13:24:41.168Z,25.50
2023-06-16T13:27:08.101Z,25.50
2023-06-16T13:29:34.968Z,25.60
2023-06-16T13:32:01.772Z,25.90
2023-06-16T13:34:28.668Z,26.10
2023-06-16T13:36:55.906Z,26.20
2023-06-16T13:39:22.823Z,26.10
2023-06-16T13:41:49.641Z,25.90
2023-06-16T13:44:16.422Z,25.70
2023-06-16T13:46:43.278Z,25.60
2023-06-16T13:49:12.705Z,25.50
2023-06-16T13:51:42.510Z,25.40
2023-06-16T13:54:11.823Z,25.50
2023-06-16T13:56:38.606Z,25.60
2023-06-16T13:59:05.428Z,25.60
2023-06-16T14:01:32.811Z,25.60
2023-06-16T14:03:59.647Z,25.50
2023-06-16T14:06:26.435Z,25.50
2023-06-16T14:08:56.969Z,25.30
2023-06-16T14:11:24.305Z,25.30
2023-06-16T14:13:51.718Z,25.30
2023-06-16T14:16:18.515Z,25.30
2023-06-16T14:18:45.431Z,25.20
2023-06-16T14:21:12.186Z,25.30
2023-06-16T14:23:38.992Z,25.20
2023-06-16T14:26:05.826Z,25.30
2023-06-16T14:28:32.629Z,25.40
2023-06-16T14:30:59.517Z,25.50
2023-06-16T14:33:26.499Z,25.70
2023-06-16T14:35:53.438Z,25.70
2023-06-16T14:38:20.725Z,25.60
2023-06-16T14:40:47.516Z,25.60
2023-06-16T14:43:14.367Z,25.60
2023-06-16T14:45:41.102Z,25.60
2023-06-16T14:48:07.985Z,25.60
2023-06-16T14:50:34.874Z,25.70
2023-06-16T14:53:01.669Z,25.70
2023-06-16T14:55:28.459Z,25.60
2023-06-16T14:57:55.290Z,25.60
2023-06-16T15:00:22.352Z,25.50
2023-06-16T15:02:49.370Z,25.40
2023-06-16T15:05:16.270Z,25.30
2023-06-16T15:07:43.051Z,25.30
2023-06-16T15:10:10.389Z,25.20
2023-06-16T15:12:37.220Z,25.20
2023-06-16T15:15:04.455Z,25.00
2023-06-16T15:17:31.274Z,24.90
2023-06-16T15:19:58.130Z,24.70
2023-06-16T15:22:26.456Z,24.60
2023-06-16T15:24:53.304Z,24.60
2023-06-16T15:27:20.032Z,24.60
2023-06-16T15:29:46.782Z,24.50
2023-06-16T15:32:13.631Z,24.50
2023-06-16T15:34:40.406Z,24.60
2023-06-16T15:37:07.347Z,24.60
2023-06-16T15:39:35.468Z,24.70
2023-06-16T15:42:04.118Z,24.80
2023-06-16T15:44:31.123Z,24.90
2023-06-16T15:46:57.971Z,25.00
2023-06-16T15:49:25.498Z,25.00
2023-06-16T15:51:52.428Z,25.20
2023-06-16T15:54:19.173Z,25.20
2023-06-16T15:56:46.031Z,25.20
2023-06-16T15:59:12.768Z,25.20
2023-06-16T16:01:42.165Z,25.10
2023-06-16T16:04:10.255Z,25.00
2023-06-16T16:06:37.198Z,24.90
2023-06-16T16:09:09.842Z,24.90
2023-06-16T16:11:40.215Z,24.90
2023-06-16T16:14:08.350Z,24.90
2023-06-16T16:16:35.261Z,24.90
2023-06-16T16:19:02.088Z,24.90
2023-06-16T16:21:28.957Z,25.00
2023-06-16T16:23:56.167Z,25.00
2023-06-16T16:26:23.204Z,24.90
2023-06-16T16:28:52.664Z,24.90
2023-06-16T16:31:19.799Z,24.90
2023-06-16T16:33:46.602Z,24.80
2023-06-16T16:36:15.593Z,24.60
2023-06-16T16:38:42.909Z,24.50
2023-06-16T16:41:09.712Z,24.30
2023-06-16T16:43:36.461Z,24.10
2023-06-16T16:46:03.224Z,24.00
2023-06-16T16:48:29.985Z,23.80
2023-06-16T16:50:56.732Z,23.70
2023-06-16T16:53:23.488Z,23.70
2023-06-16T16:55:50.586Z,23.50
2023-06-16T16:58:17.350Z,23.40
2023-06-16T17:00:44.219Z,23.20
2023-06-16T17:03:11.123Z,23.10
2023-06-16T17:05:38.009Z,23.00
2023-06-16T17:08:04.902Z,22.90
2023-06-16T17:10:31.659Z,22.90
2023-06-16T17:12:58.487Z,22.80
2023-06-16T17:15:25.297Z,22.90
2023-06-16T17:17:52.113Z,23.00
2023-06-16T17:20:19.335Z,23.00
2023-06-16T17:22:46.361Z,23.00
2023-06-16T17:25:13.173Z,23.10
2023-06-16T17:27:57.410Z,23.10
2023-06-16T17:30:27.912Z,23.10
2023-06-16T17:32:56.696Z,23.00
2023-06-16T17:35:26.274Z,22.80
2023-06-16T17:37:53.451Z,22.70
2023-06-16T17:40:20.371Z,22.60
2023-06-16T17:42:47.351Z,22.60
2023-06-16T17:45:14.434Z,22.60
2023-06-16T17:47:42.406Z,22.60
2023-06-16T17:50:10.565Z,22.50
2023-06-16T17:52:37.989Z,22.50
2023-06-16T17:55:05.547Z,22.40
2023-06-16T17:57:32.496Z,22.50
2023-06-16T17:59:59.289Z,22.70
2023-06-16T18:02:26.220Z,22.80
2023-06-16T18:04:54.234Z,22.70
2023-06-16T18:07:21.132Z,22.50
2023-06-16T18:09:47.923Z,22.30
2023-06-16T18:12:14.702Z,22.10
2023-06-16T18:14:41.506Z,21.80
2023-06-16T18:17:08.332Z,21.60
2023-06-16T18:19:35.415Z,21.40
2023-06-16T18:22:02.295Z,21.30
2023-06-16T18:24:29.510Z,21.10
2023-06-16T18:26:56.856Z,20.90
2023-06-16T18:29:23.890Z,20.80
2023-06-16T18:31:51.066Z,20.60
2023-06-16T18:34:17.896Z,20.50
2023-06-16T18:36:47.527Z,20.40
2023-06-16T18:39:19.418Z,20.30
2023-06-16T18:41:48.295Z,20.20
2023-06-16T18:44:16.879Z,20.20
2023-06-16T18:46:46.909Z,20.20
2023-06-16T18:49:13.793Z,20.10
2023-06-16T18:51:42.352Z,20.00
2023-06-16T18:54:09.277Z,20.00
2023-06-16T18:56:36.957Z,19.90
2023-06-16T18:59:04.336Z,19.80
2023-06-16T19:01:31.276Z,19.70
2023-06-16T19:03:58.903Z,19.60
2023-06-16T19:10:14.531Z,19.50
2023-06-16T19:12:43.944Z,19.30
2023-06-16T19:15:13.192Z,19.30
2023-06-16T19:17:39.993Z,19.20
2023-06-16T19:20:09.689Z,19.10
2023-06-16T19:22:36.739Z,19.10
2023-06-16T19:25:03.655Z,19.00
2023-06-16T19:27:30.575Z,19.00
2023-06-16T19:29:57.396Z,18.90
2023-06-16T19:32:24.434Z,18.90
2023-06-16T19:34:52.298Z,18.80
2023-06-16T19:37:19.103Z,18.80
2023-06-16T19:39:46.086Z,18.80
2023-06-16T19:42:12.948Z,18.70
2023-06-16T19:44:39.831Z,18.70
2023-06-16T19:47:07.042Z,18.60
2023-06-16T19:49:33.880Z,18.60
2023-06-16T19:52:00.807Z,18.60
2023-06-16T19:54:27.816Z,18.50
2023-06-16T19:56:54.865Z,18.40
2023-06-16T19:59:22.020Z,18.40
2023-06-16T20:01:48.857Z,18.40
2023-06-16T20:04:15.743Z,18.40
2023-06-16T20:06:42.494Z,18.40
2023-06-16T20:09:09.377Z,18.30
2023-06-16T20:11:36.608Z,18.30
2023-06-16T20:14:03.421Z,18.30
2023-06-16T20:16:30.303Z,18.30
2023-06-16T20:18:57.174Z,18.30
2023-06-16T20:21:24.035Z,18.30
2023-06-16T20:23:50.966Z,18.20
2023-06-16T20:26:17.848Z,18.20
2023-06-16T20:28:44.706Z,18.10
2023-06-16T20:31:11.603Z,18.00
2023-06-16T20:33:38.429Z,18.00
2023-06-16T20:36:07.646Z,17.90
2023-06-16T20:38:35.779Z,17.90
2023-06-16T20:41:05.832Z,17.80
2023-06-16T20:43:33.009Z,17.80
2023-06-16T20:46:00.764Z,17.70
2023-06-16T20:48:27.640Z,17.70
2023-06-16T20:50:56.270Z,17.60
2023-06-16T20:53:23.253Z,17.60
2023-06-16T20:55:52.152Z,17.50
2023-06-16T20:58:20.062Z,17.50
2023-06-16T21:00:48.231Z,17.50
2023-06-16T21:03:15.429Z,17.50
2023-06-16T21:05:43.205Z,17.40
2023-06-16T21:08:10.677Z,17.40
2023-06-16T21:10:37.586Z,17.40
2023-06-16T21:13:04.571Z,17.30
2023-06-16T21:15:31.894Z,17.30
2023-06-16T21:18:00.877Z,17.30
2023-06-16T21:20:27.934Z,17.20
2023-06-16T21:22:54.766Z,17.20
2023-06-16T21:25:21.685Z,17.20
2023-06-16T21:27:48.516Z,17.20
2023-06-16T21:30:15.521Z,17.20
2023-06-16T21:32:42.519Z,17.20
2023-06-16T21:35:11.178Z,17.20
2023-06-16T21:37:39.053Z,17.20
2023-06-16T21:40:11.229Z,17.20
2023-06-16T21:42:43.488Z,17.20
2023-06-16T21:45:13.421Z,17.20
2023-06-16T21:47:40.959Z,17.20
2023-06-16T21:50:08.738Z,17.20
2023-06-16T21:52:36.440Z,17.20
2023-06-16T21:55:04.532Z,17.20
2023-06-16T21:57:32.399Z,17.20
2023-06-16T22:00:00.557Z,17.10
2023-06-16T22:02:28.591Z,17.10
2023-06-16T22:04:56.154Z,17.10
2023-06-16T22:07:24.787Z,17.10
2023-06-16T22:09:52.768Z,17.10
2023-06-16T22:12:20.360Z,17.10
2023-06-16T22:14:48.254Z,17.10
2023-06-16T22:17:15.740Z,17.00
2023-06-16T22:19:43.990Z,17.00
2023-06-16T22:22:11.722Z,17.00
2023-06-16T22:24:41.672Z,16.90
2023-06-16T22:27:20.627Z,16.90
2023-06-16T22:29:48.575Z,16.80
2023-06-16T22:32:15.395Z,16.80
2023-06-16T22:34:42.182Z,16.70
2023-06-16T22:37:11.269Z,16.60
2023-06-16T22:39:39.899Z,16.50
2023-06-16T22:42:07.065Z,16.50
2023-06-16T22:44:33.891Z,16.40
2023-06-16T22:47:02.475Z,16.30
2023-06-16T22:49:29.768Z,16.30
2023-06-16T22:52:00.348Z,16.20
2023-06-16T22:54:28.297Z,16.10
2023-06-16T22:56:55.975Z,16.10
2023-06-16T22:59:22.985Z,16.10
2023-06-16T23:01:50.069Z,16.10
2023-06-16T23:04:17.168Z,16.10
2023-06-16T23:06:44.179Z,16.00
2023-06-16T23:09:10.987Z,16.10
2023-06-16T23:11:37.770Z,16.10
2023-06-16T23:14:04.639Z,16.10
2023-06-16T23:16:32.860Z,16.10
2023-06-16T23:18:59.650Z,16.00
2023-06-16T23:21:26.846Z,16.00
2023-06-16T23:23:54.882Z,16.00
2023-06-16T23:26:23.503Z,16.00
2023-06-16T23:28:50.893Z,15.90
2023-06-16T23:31:20.014Z,15.90
2023-06-16T23:33:47.986Z,15.90
2023-06-16T23:36:17.801Z,15.80
2023-06-16T23:38:45.968Z,15.80
2023-06-16T23:41:13.264Z,15.70
2023-06-16T23:43:40.077Z,15.70
2023-06-16T23:46:06.887Z,15.60
2023-06-16T23:48:33.661Z,15.60
2023-06-16T23:51:00.509Z,15.50
2023-06-16T23:53:27.273Z,15.40
2023-06-16T23:55:54.126Z,15.40
2023-06-16T23:58:20.888Z,15.40
